Euskara    
Meteorología y climatología de Navarra
Datos de la estación - Meteo Navarra

Estación de Getadar GN

Altitud 710 m.


Datos desde el 14/01/2021 hasta el 15/01/2021 en horario solar
Los datos son PROVISIONALES

Anterior Página 1 de 1 Siguiente Descargar: Formato para Excel 2000 o superior   Formato csv   Formato para OpenOffice Calc
Fecha Temperatura Humedad relativa Radiación global Insolación Precipitación Vel. viento 10 m Vel. viento 10 m Dir. viento 10 m
°C % W/m² s l/m² m/s km/h °
14/01/2021 0:00 4.1 85 0.0 0 0.0 5.5 19.7 341
14/01/2021 0:10 4.1 85 0.0 0 0.0 5.4 19.6 347
14/01/2021 0:20 4.0 87 0.0 0 0.0 5.7 20.5 352
14/01/2021 0:30 4.0 87 0.0 0 0.0 6.3 22.7 357
14/01/2021 0:40 3.9 87 0.0 0 0.0 5.4 19.4 348
14/01/2021 0:50 3.9 88 0.0 0 0.0 5.0 18.1 350
14/01/2021 1:00 3.9 89 0.0 0 0.0 4.7 16.8 350
14/01/2021 1:10 4.0 89 0.0 0 0.0 7.1 25.6 2
14/01/2021 1:20 4.1 88 0.0 0 0.0 7.8 27.9 358
14/01/2021 1:30 4.1 88 0.0 0 0.0 6.7 24.0 359
14/01/2021 1:40 4.0 88 0.0 0 0.0 5.3 19.0 356
14/01/2021 1:50 4.0 88 0.0 0 0.0 5.3 19.1 358
14/01/2021 2:00 4.1 88 0.0 0 0.0 7.8 28.2 0
14/01/2021 2:10 4.1 86 0.0 0 0.0 5.7 20.6 354
14/01/2021 2:20 4.0 86 0.0 0 0.0 5.0 18.0 350
14/01/2021 2:30 3.9 86 0.0 0 0.0 6.1 21.8 357
14/01/2021 2:40 3.9 86 0.0 0 0.0 4.7 16.9 351
14/01/2021 2:50 3.9 86 0.0 0 0.0 3.4 12.3 346
14/01/2021 3:00 4.0 86 0.0 0 0.0 4.3 15.5 353
14/01/2021 3:10 4.0 85 0.0 0 0.0 3.2 11.5 354
14/01/2021 3:20 4.0 85 0.0 0 0.0 5.2 18.6 339
14/01/2021 3:30 4.1 85 0.0 0 0.0 3.6 13.1 342
14/01/2021 3:40 4.1 86 0.0 0 0.0 3.6 13.0 341
14/01/2021 3:50 4.1 86 0.0 0 0.0 3.2 11.3 338
14/01/2021 4:00 4.2 86 0.0 0 0.0 5.0 18.1 336
14/01/2021 4:10 4.1 86 0.0 0 0.0 3.6 13.0 350
14/01/2021 4:20 4.2 86 0.0 0 0.0 3.3 11.8 348
14/01/2021 4:30 4.2 86 0.0 0 0.0 4.1 14.6 332
14/01/2021 4:40 4.3 86 0.0 0 0.0 3.4 12.2 336
14/01/2021 4:50 4.3 86 0.0 0 0.0 4.9 17.5 345
14/01/2021 5:00 4.2 87 0.0 0 0.0 3.8 13.8 335
14/01/2021 5:10 4.2 86 0.0 0 0.0 5.2 18.9 347
14/01/2021 5:20 4.2 87 0.0 0 0.0 3.8 13.5 341
14/01/2021 5:30 4.1 87 0.0 0 0.0 5.1 18.3 339
14/01/2021 5:40 4.1 86 0.0 0 0.0 4.0 14.4 333
14/01/2021 5:50 4.1 85 0.0 0 0.0 5.9 21.2 338
14/01/2021 6:00 4.0 86 0.0 0 0.0 5.7 20.6 343
14/01/2021 6:10 4.0 86 0.0 0 0.0 4.8 17.2 343
14/01/2021 6:20 4.0 86 0.0 0 0.0 5.5 19.6 337
14/01/2021 6:30 4.0 87 0.0 0 0.0 5.5 19.9 334
14/01/2021 6:40 4.0 87 0.0 0 0.0 5.7 20.6 343
14/01/2021 6:50 3.9 88 0.0 0 0.0 5.2 18.8 345
14/01/2021 7:00 3.9 88 0.0 0 0.0 5.9 21.1 345
14/01/2021 7:10 3.9 88 0.0 0 0.0 5.3 19.1 342
14/01/2021 7:20 3.9 88 0.0 0 0.0 3.9 14.1 340
14/01/2021 7:30 3.9 88 0.0 0 0.0 4.4 15.9 338
14/01/2021 7:40 3.9 88 12.5 0 0.0 3.1 11.2 337
14/01/2021 7:50 3.9 88 22.1 2 0.0 3.9 13.9 333
14/01/2021 8:00 4.0 87 27.8 170 0.0 4.0 14.5 335
14/01/2021 8:10 4.1 86 44.0 600 0.0 4.1 14.9 338
14/01/2021 8:20 4.1 85 60.3 590 0.0 4.4 15.7 337
14/01/2021 8:30 4.3 85 53.3 0 0.0 4.1 14.9 329
14/01/2021 8:40 4.3 85 73.1 106 0.0 4.6 16.4 330
14/01/2021 8:50 4.4 85 95.6 454 0.0 4.9 17.7 334
14/01/2021 9:00 4.6 84 102.5 210 0.0 4.9 17.6 333
14/01/2021 9:10 4.6 84 103.3 0 0.0 5.9 21.1 330
14/01/2021 9:20 4.6 84 104.3 0 0.0 5.0 18.1 331
14/01/2021 9:30 4.7 84 83.5 0 0.0 4.4 15.7 326
14/01/2021 9:40 4.6 84 79.8 0 0.0 4.7 16.9 327
14/01/2021 9:50 4.6 84 127.0 0 0.0 5.1 18.5 330
14/01/2021 10:00 4.8 84 136.2 88 0.0 4.7 17.0 336
14/01/2021 10:10 4.7 84 113.8 0 0.0 4.7 17.1 331
14/01/2021 10:20 4.8 84 121.9 0 0.0 3.7 13.3 327
14/01/2021 10:30 4.8 83 136.2 0 0.0 4.2 15.2 333
14/01/2021 10:40 4.8 83 140.0 0 0.0 4.5 16.1 335
14/01/2021 10:50 4.9 82 182.0 62 0.0 6.0 21.5 345
14/01/2021 11:00 5.0 81 239.2 460 0.0 7.4 26.7 345
14/01/2021 11:10 5.1 80 309.2 468 0.0 6.6 23.7 353
14/01/2021 11:20 5.4 77 433.3 586 0.0 7.5 27.0 349
14/01/2021 11:30 5.6 76 352.3 562 0.0 6.7 24.2 347
14/01/2021 11:40 5.5 76 396.6 580 0.0 7.5 27.1 340
14/01/2021 11:50 5.7 75 491.7 600 0.0 7.2 26.0 346
14/01/2021 12:00 6.1 74 508.7 600 0.0 5.1 18.4 341
14/01/2021 12:10 6.3 74 469.7 600 0.0 3.8 13.6 327
14/01/2021 12:20 6.1 74 407.8 600 0.0 4.4 15.9 308
14/01/2021 12:30 5.9 74 270.7 472 0.0 2.1 7.7 321
14/01/2021 12:40 5.9 75 214.7 96 0.0 3.2 11.6 334
14/01/2021 12:50 5.7 76 205.5 90 0.0 2.2 7.7 333
14/01/2021 13:00 5.6 76 199.3 70 0.0 3.6 13.1 341
14/01/2021 13:10 5.7 76 251.7 226 0.0 4.4 16.0 345
14/01/2021 13:20 5.8 76 304.2 412 0.0 4.4 15.7 344
14/01/2021 13:30 6.2 74 442.1 516 0.0 4.5 16.2 342
14/01/2021 13:40 6.6 72 492.7 600 0.0 4.7 17.0 348
14/01/2021 13:50 6.4 71 437.5 600 0.0 6.7 23.9 346
14/01/2021 14:00 6.3 72 424.2 600 0.0 5.8 21.0 344
14/01/2021 14:10 6.2 73 398.0 600 0.0 7.2 26.0 345
14/01/2021 14:20 6.1 73 373.1 600 0.0 7.8 28.0 343
14/01/2021 14:30 6.2 74 356.8 600 0.0 7.7 27.6 345
14/01/2021 14:40 6.0 76 234.3 382 0.0 7.3 26.2 344
14/01/2021 14:50 5.6 78 217.3 356 0.0 8.2 29.6 350
14/01/2021 15:00 5.9 78 307.2 600 0.0 7.3 26.3 349
14/01/2021 15:10 5.8 79 178.4 340 0.0 5.9 21.3 346
14/01/2021 15:20 6.0 79 260.7 520 0.0 5.4 19.4 341
14/01/2021 15:30 5.7 80 98.8 140 0.0 4.9 17.5 339
14/01/2021 15:40 5.5 81 127.6 370 0.0 4.6 16.7 346
14/01/2021 15:50 5.4 82 94.8 236 0.0 5.1 18.3 339
14/01/2021 16:00 5.3 84 69.3 124 0.0 6.6 23.6 343
14/01/2021 16:10 5.4 84 62.3 68 0.0 6.0 21.5 347
14/01/2021 16:20 5.5 84 84.9 508 0.0 6.0 21.7 352
14/01/2021 16:30 5.7 84 39.6 170 0.0 4.2 15.0 347
14/01/2021 16:40 5.7 84 18.6 0 0.0 2.5 9.1 333
14/01/2021 16:50 5.7 85 13.1 0 0.0 3.2 11.6 343
14/01/2021 17:00 5.6 86 0.0 0 0.0 2.4 8.7 346
14/01/2021 17:10 5.4 89 0.0 0 0.0 3.2 11.3 337
14/01/2021 17:20 5.3 89 0.0 0 0.0 4.1 14.6 331
14/01/2021 17:30 5.2 89 0.0 0 0.0 3.6 12.9 335
14/01/2021 17:40 5.2 89 0.0 0 0.0 3.5 12.7 330
14/01/2021 17:50 5.2 91 0.0 0 0.0 3.1 11.2 335
14/01/2021 18:00 5.2 92 0.0 0 0.0 3.0 10.7 335
14/01/2021 18:10 5.1 93 0.0 0 0.0 3.2 11.6 330
14/01/2021 18:20 5.1 94 0.0 0 0.0 3.0 10.9 332
14/01/2021 18:30 5.1 94 0.0 0 0.0 3.2 11.6 333
14/01/2021 18:40 5.2 94 0.0 0 0.0 4.2 15.0 326
14/01/2021 18:50 5.2 94 0.0 0 0.0 4.1 14.7 326
14/01/2021 19:00 5.2 94 0.0 0 0.0 4.7 16.9 325
14/01/2021 19:10 5.2 94 0.0 0 0.0 4.5 16.0 326
14/01/2021 19:20 5.2 95 0.0 0 0.0 4.3 15.4 325
14/01/2021 19:30 5.2 95 0.0 0 0.0 4.5 16.3 330
14/01/2021 19:40 5.4 95 0.0 0 0.0 3.8 13.8 331
14/01/2021 19:50 5.5 94 0.0 0 0.0 4.2 15.1 328
14/01/2021 20:00 5.7 93 0.0 0 0.0 4.7 16.9 331
14/01/2021 20:10 5.7 93 0.0 0 0.0 4.3 15.4 333
14/01/2021 20:20 5.8 93 0.0 0 0.1 4.1 14.8 333
14/01/2021 20:30 5.8 92 0.0 0 0.0 4.0 14.4 341
14/01/2021 20:40 5.8 90 0.0 0 0.0 5.0 17.9 343
14/01/2021 20:50 6.0 90 0.0 0 0.0 3.9 14.0 339
14/01/2021 21:00 6.0 89 0.0 0 0.0 4.4 15.9 340
14/01/2021 21:10 6.1 87 0.0 0 0.0 3.9 14.1 342
14/01/2021 21:20 6.1 86 0.0 0 0.0 5.3 19.2 342
14/01/2021 21:30 6.2 87 0.0 0 0.0 5.0 17.8 337
14/01/2021 21:40 6.1 89 0.0 0 0.0 5.0 17.8 342
14/01/2021 21:50 6.0 89 0.0 0 0.0 6.0 21.5 339
14/01/2021 22:00 6.0 90 0.0 0 0.0 5.5 19.7 343
14/01/2021 22:10 5.9 90 0.0 0 0.0 4.6 16.4 339
14/01/2021 22:20 5.8 90 0.0 0 0.0 5.4 19.3 343
14/01/2021 22:30 5.9 88 0.0 0 0.0 5.4 19.3 347
14/01/2021 22:40 5.9 88 0.0 0 0.0 5.1 18.4 344
14/01/2021 22:50 5.9 87 0.0 0 0.0 6.2 22.5 346
14/01/2021 23:00 5.8 87 0.0 0 0.0 4.7 16.8 343
14/01/2021 23:10 5.7 87 0.0 0 0.0 5.1 18.4 343
14/01/2021 23:20 5.7 85 0.0 0 0.0 5.2 18.9 344
14/01/2021 23:30 5.6 83 0.0 0 0.0 4.4 15.7 346
14/01/2021 23:40 5.4 81 0.0 0 0.0 4.9 17.6 344
14/01/2021 23:50 5.2 81 0.0 0 0.0 3.6 12.9 339
Anterior Página 1 de 1 Siguiente

NOTA: Tipo de datos según el color:
   - Valores diarios o 10 minutos correctos
   - Valores diarios calculados a partir de un número de datos 10 minutos menor que 144 y mayor que 120, o de un número de datos semihorarios menor que 48 y mayor que 40 (caso de las estaciones de INTIA Y Ministerio)
   - Valores diez minutos estimados


Contacto        Enlaces        Aviso legal